Fort Myers Beach, FL

11:58 AM EST on March 02, 2015 (GMT -0500)
Fort Myers Beach | Change Station
CLOSE
Current Station
Personal Weather Station
Location: Fort Myers Beach, FL
Elevation: 16 ft
Nearby Weather Stations

Elev 16 ft 26.45 °N, 81.95 °W | Updated 15 seconds ago

Partly Cloudy
Partly Cloudy
82.6 °F
Feels Like 86 °F
N
2.7
Wind Variable Wind from East
Gusts 5.8 mph

Today
High -- | Low -- °F
--% Chance of Precip.
Yesterday
High -- | Low -- °F
Precip. -- in
6:50 AM 6:29 PM
Waxing Gibbous, 92% visible
Pressure 30.26 in
Visibility 10.0 miles
Clouds Scattered Clouds 2200 ft
Heat Index 86 °F
Dew Point 68 °F
Humidity 62%
Rainfall 0.00 in
Snow Depth Not available.
UV 8 out of 12
Pollen 10.10 out of 12
Air Quality Not available.
Flu Activity Not available.
METAR KFMY 021653Z 16007KT 10SM SCT022 27/18 A3025 RMK AO2 SLP245 T02720183

More Conditions Fewer Conditions

Pressure 30.26 in
Visibility 10.0 miles
Clouds Scattered Clouds 2200 ft
Heat Index 86 °F
Dew Point 68 °F
Humidity 62%
Rainfall 0.00 in
Snow Depth Not available.
UV 8 out of 12
Pollen 10.10 out of 12
Air Quality Not available.
Flu Activity Not available.
METAR KFMY 021653Z 16007KT 10SM SCT022 27/18 A3025 RMK AO2 SLP245 T02720183

More Conditions Fewer Conditions

10-Day Weather Forecast

Almanac

Astronomy

Mar. 02, 2015 Rise Set
Actual Time
Civil Twilight
Nautical Twilight
Astronomical Twilight
Moon
Length of Visible Light
Length of Day
Tomorrow will be .
, % of the Moon is Illuminated

Today's Extremes

State Highs State Lows

Community

WunderPhotos

Upload Photos

1,801,837 photos uploaded!

WunderBlogs® & News

Nearby

Air Quality

  Air Quality AQ Index Pollutant
Not available.

Snow Depth

Station Depth Elevation

Earthquake Activity

City Distance Mag. Time & Date
Minimum magnitude displayed is 2.5.

Coastal Water Temperatures

Place Temperature

Nearby Weather Stations